Wells, MI (49894)

10:58 PM EST on February 12, 2016 (GMT -0500)
Soo Hill near Escanaba | | Change Station
CLOSE
Current Station
Personal Weather Station
Location: Escanaba, MI
Elevation: 708 ft
Nearby Weather Stations
Active Advisory: Lake Effect Snow Advisory Active Notice: Local Storm Report

Elev 708 ft 45.80 °N, 87.13 °W | Updated 21 seconds ago

Clear
Clear
-1.7 °F
Feels Like -2 °F
N
0.0
Wind Variable Wind from SW
Gusts 0.0 mph

Today
High -- | Low -- °F
--% Chance of Precip.
Yesterday
High -- | Low -- °F
Precip. -- in
Pressure 30.33 in
Visibility 10.0 miles
Clouds Clear
Windchill -2 °F
Dew Point -21 °F
Humidity 39%
Rainfall 0.00 in
Snow Depth Not available.
7:55 AM 6:09 PM
Waxing Crescent, 26% visible
METAR KESC 130355Z AUTO 29011KT 10SM CLR M18/M24 A3033 RMK AO1
Pressure 30.33 in
Visibility 10.0 miles
Clouds Clear
Windchill -2 °F
Dew Point -21 °F
Humidity 39%
Rainfall 0.00 in
Snow Depth Not available.
7:55 AM 6:09 PM
Waxing Crescent, 26% visible
METAR KESC 130355Z AUTO 29011KT 10SM CLR M18/M24 A3033 RMK AO1

10-Day Weather Forecast

Almanac

Astronomy

Feb. 12, 2016 Rise Set
Actual Time
Civil Twilight
Nautical Twilight
Astronomical Twilight
Moon
Length of Visible Light
Length of Day
Tomorrow will be .
, % of the Moon is Illuminated

Today's Extremes

State Highs State Lows

Community

WunderPhotos

Upload Photos

1,892,492 photos uploaded!

WunderBlog® & News

Nearby

Air Quality

  Air Quality AQ Index Pollutant
Not available.

Snow Depth

Station Depth Elevation

Earthquake Activity

City Distance Mag. Time & Date
Minimum magnitude displayed is 2.5.

Coastal Water Temperatures

Place Temperature

Stations

Nearby Weather Stations

Station Location Temp. Windchill Dew Point Humidity Wind Precip. Elev Updated Type
                   

Watches & Warnings

Lake Effect Snow Advisory
Issued: 8:47 PM EST Feb. 12, 2016 – National Weather Service

... Lake effect Snow Advisory remains in effect until 7 am EST
Saturday...

Hazardous weather...

* light to moderate lake effect snow will continue through
   tonight.

* Northwest winds will continue to gust to 25 mph through tonight... leading
   to blowing snow and reduced visibilities to one half mile or less.

* Additional snow accumulations through tonight of 2 to 5 inches can
   be expected for locations north and east of a line from Chicago
   Lake to Garden Corners. Southwest of that line... additional snow
   accumulations will be an inch or less.

* Wind chill readings will be as low as 25 below zero through
   tonight.

Impacts...

* snow covered roads will be slippery.

* Blowing snow will reduce visibilities to one half mile or
   less at times.

* Wind chill values to 25 below zero can lead to frost bite on
   exposed skin in as little as 15 minutes.

Precautionary/preparedness actions...

* a lake effect Snow Advisory Means Lake effect snow is
   forecast that will make travel difficult in some areas.

* Prepare... plan... and stay informed. Visit www.Weather.Gov/MQT